Time;durP1;ratioP1;P1;durP2;ratioP2;P2;SDS_P1;SDS_P2;PMS_P1;PMS_P2;Temp;Humidity;BMP_temperature;BMP_pressure;BME280_temperature;BME280_humidity;BME280_pressure;Samples;Min_cycle;Max_cycle;Signal;HPM_P1;HPM_P2
2022/03/20 00:00:31;;;;;;;4.72;4.53;;;;;;;2.16;60.05;102434.03;6080669;23;20080;-66
2022/03/20 00:02:58;;;;;;;3.50;3.35;;;;;;;3.29;58.49;102563.00;6082818;23;20029;-66
2022/03/20 00:05:31;;;;;;;4.32;4.13;;;;;;;4.50;56.66;102755.22;6064556;23;20025;-66
2022/03/20 00:07:58;;;;;;;3.67;3.58;;;;;;;3.84;57.11;102635.25;6111314;23;20018;-66
2022/03/20 00:10:24;;;;;;;3.00;2.90;;;;;;;4.51;56.70;102749.13;6086138;23;20022;-67
2022/03/20 00:12:52;;;;;;;3.20;3.10;;;;;;;3.39;55.90;102538.88;6101869;23;20048;-66
2022/03/20 00:15:19;;;;;;;3.03;2.92;;;;;;;4.43;56.85;102730.03;6085200;23;20076;-66
2022/03/20 00:17:46;;;;;;;3.40;3.28;;;;;;;4.37;56.43;102733.44;6099724;23;20034;-66
2022/03/20 00:20:12;;;;;;;3.80;3.50;;;;;;;4.13;57.04;102715.97;6079958;23;20025;-67
2022/03/20 00:22:39;;;;;;;2.95;2.85;;;;;;;3.14;57.51;102558.53;6131219;23;20503;-66
2022/03/20 00:25:05;;;;;;;3.15;3.05;;;;;;;3.98;57.95;102733.19;6105124;23;20047;-66
2022/03/20 00:27:32;;;;;;;6.82;6.35;;;;;;;3.15;57.67;102561.16;6090492;23;20092;-66
2022/03/20 00:29:59;;;;;;;3.92;3.72;;;;;;;4.09;56.56;102714.19;6075626;23;20017;-66
2022/03/20 00:32:25;;;;;;;5.65;5.35;;;;;;;3.77;56.69;102683.69;6095662;23;20230;-66
2022/03/20 00:34:56;;;;;;;3.38;3.28;;;;;;;3.74;57.42;102678.44;6088364;23;20328;-66
2022/03/20 00:37:23;;;;;;;3.10;3.00;;;;;;;3.73;58.11;102694.91;6123650;23;20029;-66
2022/03/20 00:39:50;;;;;;;10.57;3.53;;;;;;;3.69;57.93;102698.28;6100526;23;20447;-66
2022/03/20 00:42:16;;;;;;;3.42;3.33;;;;;;;3.27;57.67;102626.97;6082030;23;20092;-65
2022/03/20 00:44:42;;;;;;;3.67;3.47;;;;;;;3.64;57.80;102705.19;6085541;23;20143;-67
2022/03/20 00:47:09;;;;;;;6.82;3.10;;;;;;;2.34;56.97;102472.22;6086954;23;20447;-67
2022/03/20 00:49:36;;;;;;;5.22;5.03;;;;;;;3.78;56.83;102698.38;6064975;23;20263;-66
2022/03/20 00:52:04;;;;;;;4.07;3.78;;;;;;;3.59;57.50;102693.03;6110587;23;20355;-66
2022/03/20 00:54:30;;;;;;;4.45;4.25;;;;;;;2.02;56.36;102394.19;6085952;23;20418;-66
2022/03/20 00:56:58;;;;;;;3.10;3.00;;;;;;;3.62;57.26;102691.31;6090085;23;20024;-66
2022/03/20 00:59:24;;;;;;;3.97;3.80;;;;;;;3.83;56.18;102686.31;6051312;23;20025;-67
2022/03/20 01:01:51;;;;;;;3.17;3.08;;;;;;;3.86;56.10;102681.13;6097516;23;20023;-67
2022/03/20 01:04:17;;;;;;;3.55;3.35;;;;;;;3.76;56.53;102653.34;6096127;23;20022;-67
2022/03/20 01:06:44;;;;;;;2.83;2.72;;;;;;;3.73;56.15;102649.03;6083726;23;20073;-65
2022/03/20 01:09:11;;;;;;;2.80;2.70;;;;;;;3.76;57.42;102648.16;6071795;23;20061;-66
2022/03/20 01:11:38;;;;;;;4.85;4.65;;;;;;;3.70;59.87;102648.13;6082479;23;20097;-66
2022/03/20 01:14:06;;;;;;;2.72;2.63;;;;;;;3.74;57.99;102655.94;6088384;23;20033;-66
2022/03/20 01:16:32;;;;;;;5.78;5.35;;;;;;;3.37;57.55;102582.09;6087852;23;20024;-66
2022/03/20 01:18:59;;;;;;;3.28;3.17;;;;;;;3.67;57.76;102625.59;6058305;23;20030;-66
2022/03/20 01:21:25;;;;;;;5.18;4.97;;;;;;;2.78;56.79;102464.00;6086794;23;20305;-66
2022/03/20 01:23:52;;;;;;;3.10;3.00;;;;;;;3.79;57.45;102649.06;6085146;23;20105;-65
2022/03/20 01:26:18;;;;;;;3.60;3.40;;;;;;;3.71;56.84;102618.69;6077607;23;20095;-66
2022/03/20 01:28:45;;;;;;;3.10;3.00;;;;;;;3.75;55.75;102621.34;6096669;23;20436;-65
2022/03/20 01:31:11;;;;;;;3.20;3.10;;;;;;;3.08;57.44;102519.59;6079920;23;20026;-65
2022/03/20 01:33:38;;;;;;;4.07;3.88;;;;;;;3.56;57.38;102602.13;6084807;23;20048;-66
2022/03/20 01:36:04;;;;;;;3.78;3.58;;;;;;;2.42;56.73;102395.44;6088401;23;20096;-66
2022/03/20 01:38:31;;;;;;;6.60;6.18;;;;;;;3.55;55.97;102590.03;6082248;23;20181;-66
2022/03/20 01:41:00;;;;;;;3.00;2.90;;;;;;;2.11;56.45;102363.22;6092431;23;20460;-66
2022/03/20 01:43:26;;;;;;;5.45;5.25;;;;;;;3.74;56.11;102619.56;6082995;23;20332;-65
2022/03/20 01:45:53;;;;;;;3.33;3.22;;;;;;;3.68;56.43;102597.91;6085477;23;20018;-66
2022/03/20 01:48:19;;;;;;;3.00;2.90;;;;;;;3.52;56.32;102571.81;6081904;23;20067;-66
2022/03/20 01:50:46;;;;;;;3.13;3.03;;;;;;;3.62;56.91;102597.84;6076186;23;21545;-66
2022/03/20 01:53:13;;;;;;;3.83;3.63;;;;;;;3.73;56.28;102604.88;6089224;23;20482;-68
2022/03/20 01:55:39;;;;;;;3.72;3.53;;;;;;;3.09;55.84;102488.47;6083428;23;20319;-66
2022/03/20 01:58:06;;;;;;;4.15;3.75;;;;;;;3.76;55.77;102596.22;6066033;23;20445;-66
2022/03/20 02:00:32;;;;;;;5.18;4.97;;;;;;;3.70;55.85;102580.59;6089749;23;20026;-68
2022/03/20 02:03:00;;;;;;;3.83;3.63;;;;;;;3.66;56.09;102592.69;6057876;23;20072;-68
2022/03/20 02:05:27;;;;;;;4.55;4.35;;;;;;;3.46;55.79;102574.38;6087127;23;20407;-68
2022/03/20 02:07:54;;;;;;;3.50;3.25;;;;;;;3.59;56.25;102580.53;6055747;23;20021;-66
2022/03/20 02:10:21;;;;;;;3.90;3.70;;;;;;;1.41;55.61;102229.66;6086519;23;20412;-66
2022/03/20 02:12:48;;;;;;;3.35;3.22;;;;;;;2.62;55.22;102412.91;6086896;23;20089;-65
2022/03/20 02:15:14;;;;;;;2.90;2.80;;;;;;;3.09;54.74;102493.66;6085215;23;20279;-67
2022/03/20 02:17:42;;;;;;;3.20;3.10;;;;;;;2.20;54.99;102339.97;6088568;23;20443;-67
2022/03/20 02:20:10;;;;;;;3.60;3.40;;;;;;;3.45;55.33;102535.41;6081161;23;20112;-66
2022/03/20 02:22:43;;;;;;;5.80;5.55;;;;;;;3.52;55.61;102558.84;6086580;23;20141;-66
2022/03/20 02:25:12;;;;;;;3.05;2.95;;;;;;;3.42;56.01;102541.47;6087993;23;20100;-67
2022/03/20 02:27:39;;;;;;;4.68;4.47;;;;;;;3.49;56.61;102545.84;6077580;23;20042;-65
2022/03/20 02:30:16;;;;;;;2.90;2.80;;;;;;;3.38;57.69;102535.38;6092720;23;20030;-66
2022/03/20 02:32:45;;;;;;;2.90;2.80;;;;;;;3.40;57.77;102535.41;6086638;23;20455;-67
2022/03/20 02:35:14;;;;;;;3.35;3.22;;;;;;;3.24;58.01;102492.91;6086980;23;20403;-67
2022/03/20 02:37:50;;;;;;;3.33;3.15;;;;;;;3.44;57.98;102536.28;6061178;23;20419;-67
2022/03/20 02:40:22;;;;;;;3.42;3.22;;;;;;;3.43;57.67;102526.75;6101927;23;20422;-65
2022/03/20 02:42:49;;;;;;;3.20;3.05;;;;;;;3.36;57.01;102523.25;6057942;23;20167;-65
2022/03/20 02:45:21;;;;;;;4.88;4.68;;;;;;;3.47;56.80;102531.09;6110656;23;20108;-67
2022/03/20 02:47:49;;;;;;;3.40;3.30;;;;;;;2.51;56.82;102366.16;6058867;23;20464;-67
2022/03/20 02:50:17;;;;;;;3.45;3.25;;;;;;;3.49;57.35;102517.31;6087047;23;20762;-67
2022/03/20 02:53:13;;;;;;;3.20;3.10;;;;;;;3.49;57.69;102519.91;6059428;23;20387;-68
2022/03/20 02:55:45;;;;;;;3.38;3.28;;;;;;;3.23;57.45;102464.34;6091743;23;20032;-67
2022/03/20 02:58:17;;;;;;;3.15;3.05;;;;;;;3.50;58.41;102506.03;6080598;23;20402;-67
2022/03/20 03:00:45;;;;;;;3.20;3.10;;;;;;;3.49;58.93;102504.34;6109195;23;20088;-67
2022/03/20 03:03:12;;;;;;;2.83;2.72;;;;;;;3.49;58.49;102503.44;6083709;23;20528;-66
2022/03/20 03:05:41;;;;;;;3.55;3.45;;;;;;;3.46;58.98;102488.72;6106430;23;20702;-67
2022/03/20 03:11:01;;;;;;;2.80;2.70;;;;;;;3.38;60.90;102485.22;6101956;23;20040;-67
2022/03/20 03:13:39;;;;;;;5.25;5.03;;;;;;;3.30;60.65;102492.94;6078590;23;20604;-66
2022/03/20 03:16:10;;;;;;;3.10;3.00;;;;;;;2.17;60.60;102308.88;6101726;23;20025;-65
2022/03/20 03:18:38;;;;;;;5.75;5.50;;;;;;;3.23;60.21;102490.28;6080590;23;20018;-66
2022/03/20 03:21:09;;;;;;;3.42;3.22;;;;;;;1.95;59.99;102275.03;6120968;23;20115;-66
2022/03/20 03:23:36;;;;;;;3.10;3.00;;;;;;;3.06;59.45;102453.84;6094214;23;20010;-66
2022/03/20 03:26:06;;;;;;;3.60;3.40;;;;;;;3.26;59.60;102479.94;6094890;23;20049;-66
2022/03/20 03:28:34;;;;;;;4.95;4.75;;;;;;;1.21;57.99;102127.72;6094933;23;20505;-66
2022/03/20 03:31:04;;;;;;;3.47;3.35;;;;;;;3.32;58.25;102475.66;6101141;23;20025;-66
2022/03/20 03:33:31;;;;;;;4.45;4.25;;;;;;;3.15;58.33;102453.94;6089144;23;20038;-66
2022/03/20 03:35:58;;;;;;;3.65;3.45;;;;;;;3.20;59.34;102473.84;6120729;23;20031;-66
2022/03/20 03:38:27;;;;;;;3.90;3.72;;;;;;;2.88;60.90;102429.50;6080009;23;20030;-66
2022/03/20 03:40:56;;;;;;;3.15;3.05;;;;;;;3.05;60.77;102460.78;6082147;23;20049;-66
2022/03/20 03:43:24;;;;;;;6.82;3.80;;;;;;;3.01;60.93;102456.44;6079171;23;20369;-66
2022/03/20 03:45:53;;;;;;;4.07;3.88;;;;;;;2.96;60.33;102453.78;6103372;23;20139;-66
2022/03/20 03:48:20;;;;;;;3.45;3.25;;;;;;;2.93;61.04;102445.13;6084165;23;20490;-66
2022/03/20 03:50:48;;;;;;;3.33;3.22;;;;;;;2.93;61.26;102455.50;6109145;23;20250;-67
2022/03/20 03:53:14;;;;;;;2.90;2.80;;;;;;;2.88;60.99;102441.63;6081741;23;20028;-66
2022/03/20 03:55:43;;;;;;;4.20;4.00;;;;;;;2.46;60.42;102370.44;6083014;23;20498;-66
2022/03/20 03:58:12;;;;;;;3.10;3.00;;;;;;;2.84;61.14;102434.69;6078498;23;20467;-66
2022/03/20 04:00:40;;;;;;;4.80;4.50;;;;;;;2.78;61.13;102431.16;6103594;23;20108;-66
2022/03/20 04:03:07;;;;;;;2.80;2.70;;;;;;;2.70;61.27;102432.81;6052627;23;20022;-67
2022/03/20 04:05:34;;;;;;;4.50;4.30;;;;;;;2.67;60.90;102417.25;6079434;23;20239;-66
2022/03/20 04:08:01;;;;;;;3.70;3.50;;;;;;;2.56;61.16;102413.69;6056893;23;20370;-66
2022/03/20 04:10:27;;;;;;;5.55;5.15;;;;;;;2.49;61.01;102414.53;6060579;23;20078;-66
2022/03/20 04:12:54;;;;;;;3.00;2.90;;;;;;;2.24;61.20;102390.94;6065092;23;20140;-66
2022/03/20 04:15:25;;;;;;;3.10;3.00;;;;;;;2.40;61.41;102405.78;6090887;23;20383;-66
2022/03/20 04:17:52;;;;;;;3.40;3.30;;;;;;;1.02;61.52;102168.03;6083085;23;20059;-66
2022/03/20 04:20:20;;;;;;;3.15;3.05;;;;;;;2.16;61.95;102367.56;6088697;23;20325;-66
2022/03/20 04:25:34;;;;;;;5.63;5.35;;;;;;;1.59;62.82;102301.41;6096227;23;20021;-66
2022/03/20 04:28:00;;;;;;;2.78;2.67;;;;;;;1.22;63.09;102225.97;6092010;23;20010;-66
2022/03/20 04:30:28;;;;;;;4.38;4.18;;;;;;;2.22;63.03;102391.81;6096864;23;20486;-65
2022/03/20 04:32:56;;;;;;;3.00;2.90;;;;;;;0.93;63.66;102184.31;6091343;23;20075;-67
2022/03/20 04:35:23;;;;;;;3.35;3.25;;;;;;;2.16;63.71;102379.66;6086691;23;20337;-66
2022/03/20 04:37:51;;;;;;;2.78;2.67;;;;;;;1.02;63.62;102180.94;6069759;23;20018;-66
2022/03/20 04:40:17;;;;;;;3.17;3.08;;;;;;;0.96;63.58;102171.41;6066883;23;20078;-66
2022/03/20 04:42:44;;;;;;;3.70;3.53;;;;;;;0.96;63.64;102172.28;6041687;23;20273;-66
2022/03/20 04:45:11;;;;;;;3.00;2.90;;;;;;;0.67;63.22;102090.97;6064142;23;20071;-66
2022/03/20 04:58:40;;;;;;;2.90;2.80;;;;;;;2.09;63.61;102342.47;6045108;23;20105;-65
2022/03/20 05:01:08;;;;;;;3.30;3.20;;;;;;;2.22;63.13;102360.72;6074653;23;20018;-65
2022/03/20 05:03:38;;;;;;;3.45;3.25;;;;;;;2.27;62.18;102344.38;6059628;23;20471;-65
2022/03/20 05:06:07;;;;;;;2.90;2.80;;;;;;;2.34;62.48;102353.06;6066009;23;20026;-65
2022/03/20 05:08:37;;;;;;;2.80;2.70;;;;;;;0.17;62.80;101999.16;6058386;23;20327;-66
2022/03/20 05:13:49;;;;;;;2.88;2.78;;;;;;;2.36;61.19;102341.84;6043275;23;20035;-66
2022/03/20 05:16:15;;;;;;;3.40;3.30;;;;;;;2.45;61.89;102363.53;6078334;23;20089;-66
2022/03/20 05:18:42;;;;;;;3.22;3.13;;;;;;;1.98;61.75;102290.59;6055611;23;20109;-66
2022/03/20 05:21:10;;;;;;;2.78;2.67;;;;;;;2.37;62.15;102353.09;6071945;23;20639;-66
2022/03/20 05:23:37;;;;;;;4.85;4.65;;;;;;;2.39;61.76;102349.66;6058340;23;20014;-66
2022/03/20 05:26:04;;;;;;;2.70;2.60;;;;;;;2.42;62.16;102347.94;6062163;23;20034;-68
2022/03/20 05:28:30;;;;;;;3.63;3.47;;;;;;;1.04;61.95;102118.06;6062681;23;20506;-66
2022/03/20 05:30:57;;;;;;;3.40;3.20;;;;;;;2.21;62.92;102302.00;6063149;23;20121;-66
2022/03/20 05:33:24;;;;;;;4.85;4.57;;;;;;;2.41;63.14;102326.34;6058687;23;20022;-66
2022/03/20 05:35:50;;;;;;;2.78;2.67;;;;;;;2.37;62.72;102317.69;6062769;23;20181;-65
2022/03/20 05:38:17;;;;;;;3.53;3.30;;;;;;;2.48;62.01;102342.81;6055124;23;20170;-66
2022/03/20 05:40:45;;;;;;;2.80;2.70;;;;;;;2.45;62.04;102348.84;6085817;23;20014;-66
2022/03/20 05:43:11;;;;;;;3.00;2.90;;;;;;;2.39;62.04;102336.69;6084149;23;20032;-65
2022/03/20 05:45:39;;;;;;;4.25;4.05;;;;;;;2.47;62.13;102367.00;6076273;23;20294;-65
2022/03/20 05:48:09;;;;;;;4.65;4.45;;;;;;;2.50;61.69;102357.50;6053624;23;20093;-66
2022/03/20 05:50:41;;;;;;;4.25;4.03;;;;;;;2.54;62.34;102361.00;6080337;23;20022;-65
2022/03/20 05:53:08;;;;;;;2.85;2.75;;;;;;;2.59;61.46;102349.81;6062859;23;20174;-66
2022/03/20 05:58:20;;;;;;;3.35;3.15;;;;;;;2.91;59.40;102359.53;6061211;23;20038;-65
2022/03/20 06:00:46;;;;;;;2.75;2.65;;;;;;;3.03;59.30;102350.97;6085598;23;20020;-67
2022/03/20 06:03:15;;;;;;;2.80;2.70;;;;;;;3.16;58.52;102349.28;6085016;23;20017;-67
2022/03/20 06:05:41;;;;;;;4.20;4.00;;;;;;;3.22;58.69;102354.50;6081086;23;20030;-66
2022/03/20 06:08:08;;;;;;;2.72;2.63;;;;;;;3.24;59.68;102347.59;6054478;23;20029;-66
2022/03/20 06:10:35;;;;;;;5.80;5.35;;;;;;;3.38;61.50;102366.69;6081702;23;20093;-66
2022/03/20 06:13:08;;;;;;;3.33;3.22;;;;;;;3.29;62.32;102345.06;6062384;23;20046;-66
2022/03/20 06:15:34;;;;;;;5.05;4.75;;;;;;;2.17;63.24;102131.03;6073620;23;20268;-66
2022/03/20 06:18:04;;;;;;;3.15;3.05;;;;;;;3.56;64.77;102384.06;6052850;23;20030;-66
2022/03/20 06:20:34;;;;;;;4.85;4.57;;;;;;;3.70;63.69;102365.09;6083431;23;20073;-66
2022/03/20 06:23:01;;;;;;;3.20;3.10;;;;;;;3.86;60.99;102356.47;6083636;23;20085;-65
2022/03/20 06:25:27;;;;;;;5.00;4.80;;;;;;;2.76;59.57;102137.34;6093440;23;20124;-65
2022/03/20 06:27:56;;;;;;;3.50;3.40;;;;;;;4.14;59.29;102347.00;6084787;23;20034;-65
2022/03/20 06:30:23;;;;;;;4.18;3.97;;;;;;;4.14;59.26;102343.53;6075054;23;20030;-65
2022/03/20 06:32:50;;;;;;;3.50;3.30;;;;;;;2.90;59.86;102144.31;6082501;23;20058;-66
2022/03/20 06:35:19;;;;;;;3.40;3.20;;;;;;;4.07;59.39;102354.78;6077962;23;20045;-67
2022/03/20 06:37:49;;;;;;;3.10;3.00;;;;;;;3.02;58.37;102159.91;6081794;23;22432;-66
2022/03/20 06:40:16;;;;;;;3.72;3.53;;;;;;;4.15;59.29;102340.06;6105467;23;20127;-66
2022/03/20 06:42:43;;;;;;;4.38;4.18;;;;;;;4.11;59.42;102326.22;6078214;23;20010;-66
2022/03/20 06:45:14;;;;;;;3.80;3.60;;;;;;;4.13;60.25;102313.22;6080314;23;20057;-66
2022/03/20 06:47:43;;;;;;;4.00;3.80;;;;;;;4.31;60.32;102331.44;6075641;23;20609;-65
2022/03/20 06:50:11;;;;;;;3.90;3.70;;;;;;;4.37;56.82;102314.94;6043337;23;20026;-66
2022/03/20 06:52:40;;;;;;;5.97;5.68;;;;;;;4.50;56.57;102318.44;6108282;23;20030;-66
2022/03/20 06:55:09;;;;;;;3.90;3.70;;;;;;;4.47;57.43;102287.22;6080712;23;20082;-65
2022/03/20 06:57:40;;;;;;;5.78;5.53;;;;;;;4.71;57.57;102304.53;6076096;23;20033;-65
2022/03/20 07:00:08;;;;;;;3.30;3.20;;;;;;;4.76;55.90;102306.25;6078089;23;20393;-66
2022/03/20 07:02:34;;;;;;;6.07;5.55;;;;;;;4.87;55.02;102288.03;6074497;23;20659;-66
2022/03/20 07:05:01;;;;;;;3.75;3.55;;;;;;;5.03;53.63;102290.56;6080694;23;20029;-66
2022/03/20 07:07:28;;;;;;;5.30;5.10;;;;;;;5.18;53.54;102309.59;6078730;23;20037;-66
2022/03/20 07:09:54;;;;;;;3.33;3.20;;;;;;;5.45;52.87;102305.13;6064653;23;20014;-66
2022/03/20 07:12:21;;;;;;;3.60;3.47;;;;;;;4.22;50.47;102081.97;6081835;23;20022;-65
2022/03/20 07:14:47;;;;;;;3.60;3.50;;;;;;;5.35;49.68;102233.16;6077763;23;20025;-65
2022/03/20 07:17:16;;;;;;;3.20;3.10;;;;;;;5.74;48.28;102296.31;6078032;23;20085;-65
2022/03/20 07:19:43;;;;;;;3.42;3.33;;;;;;;5.56;48.05;102276.44;6053014;23;20078;-65
2022/03/20 07:22:12;;;;;;;4.10;3.90;;;;;;;5.63;48.92;102296.34;6083568;23;20252;-65
2022/03/20 07:24:41;;;;;;;5.05;4.75;;;;;;;5.48;49.10;102281.69;6077017;23;20021;-66
2022/03/20 07:29:54;;;;;;;3.50;3.40;;;;;;;4.43;49.96;102133.03;6050842;23;20002;-66
2022/03/20 07:32:21;;;;;;;3.63;3.50;;;;;;;3.93;50.28;102030.09;6079014;23;20014;-65
2022/03/20 07:34:47;;;;;;;3.40;3.28;;;;;;;5.35;50.24;102272.19;6073699;23;20013;-65
2022/03/20 07:37:16;;;;;;;3.70;3.50;;;;;;;5.59;48.38;102264.28;6087885;23;20428;-67
2022/03/20 07:39:44;;;;;;;3.85;3.65;;;;;;;5.68;48.11;102239.03;6055240;23;20014;-66
2022/03/20 07:42:11;;;;;;;4.53;4.32;;;;;;;5.84;47.83;102243.25;6078668;23;20028;-66
2022/03/20 07:44:37;;;;;;;5.38;5.15;;;;;;;6.07;48.27;102250.91;6049050;23;20073;-66
2022/03/20 07:47:08;;;;;;;3.67;3.50;;;;;;;5.99;47.08;102201.50;6078710;23;20057;-66
2022/03/20 07:49:38;;;;;;;7.18;6.63;;;;;;;6.13;47.18;102203.97;6046469;23;20022;-66
2022/03/20 07:52:05;;;;;;;4.10;3.90;;;;;;;6.46;47.54;102229.72;6075816;23;20022;-65
2022/03/20 07:54:32;;;;;;;5.97;5.68;;;;;;;6.52;47.05;102212.25;6076528;23;20021;-66
2022/03/20 07:57:00;;;;;;;4.47;4.15;;;;;;;6.72;46.79;102234.66;6081087;23;20077;-65
2022/03/20 07:59:26;;;;;;;4.90;4.70;;;;;;;5.58;46.00;102046.38;6076101;23;20041;-66
2022/03/20 08:01:53;;;;;;;4.07;3.88;;;;;;;6.92;46.74;102244.84;6084864;23;20030;-64
2022/03/20 08:04:20;;;;;;;5.15;4.85;;;;;;;5.86;46.24;102040.03;6077168;23;20101;-64
2022/03/20 08:06:46;;;;;;;4.25;3.58;;;;;;;5.89;46.07;102059.09;6075586;23;20014;-65
2022/03/20 08:09:13;;;;;;;4.10;3.90;;;;;;;6.82;46.16;102181.47;6079584;23;20010;-65
2022/03/20 08:11:40;;;;;;;4.57;4.38;;;;;;;7.23;46.60;102221.81;6074355;23;20068;-66
2022/03/20 08:14:08;;;;;;;4.05;3.85;;;;;;;5.99;45.48;102039.03;6084335;23;20126;-65
2022/03/20 08:16:38;;;;;;;5.38;5.18;;;;;;;6.10;45.74;102025.91;6077061;23;20364;-69
2022/03/20 08:19:07;;;;;;;11.02;4.38;;;;;;;7.46;44.39;102231.94;6078053;23;20089;-67
2022/03/20 08:21:35;;;;;;;5.70;5.40;;;;;;;7.45;44.39;102258.09;6079773;23;20006;-67
2022/03/20 08:24:02;;;;;;;4.60;4.35;;;;;;;7.50;44.38;102243.22;6048711;23;20025;-66
2022/03/20 08:26:33;;;;;;;5.07;4.88;;;;;;;7.52;45.45;102226.63;6077009;23;20096;-65
2022/03/20 08:29:00;;;;;;;3.55;3.42;;;;;;;7.61;44.04;102230.00;6061418;23;20026;-66
2022/03/20 08:31:28;;;;;;;5.43;5.13;;;;;;;7.70;45.30;102233.31;6075702;23;20274;-67
2022/03/20 08:33:57;;;;;;;4.25;4.05;;;;;;;7.61;44.77;102202.09;6080375;23;20486;-67
2022/03/20 08:36:24;;;;;;;4.38;4.18;;;;;;;6.07;44.67;101951.19;6078143;23;20162;-66
2022/03/20 08:38:52;;;;;;;5.72;5.32;;;;;;;7.47;44.83;102157.06;6079855;23;20006;-66
2022/03/20 08:41:19;;;;;;;3.80;3.65;;;;;;;6.96;44.31;102071.69;6083217;23;20017;-67
2022/03/20 08:43:46;;;;;;;4.82;4.53;;;;;;;6.58;43.39;101977.44;6077703;23;20109;-66
2022/03/20 08:46:14;;;;;;;5.10;4.75;;;;;;;7.96;43.18;102191.09;6078028;23;20431;-65
2022/03/20 08:48:42;;;;;;;5.47;4.75;;;;;;;7.11;42.94;102074.03;6075219;23;20025;-65
2022/03/20 08:51:09;;;;;;;6.53;6.13;;;;;;;8.16;42.95;102222.09;6058493;23;20022;-65
2022/03/20 08:53:35;;;;;;;8.00;7.40;;;;;;;8.08;42.67;102215.25;6081632;23;20022;-65
2022/03/20 08:56:02;;;;;;;4.13;3.92;;;;;;;7.39;42.93;102050.09;6079988;23;20037;-65
2022/03/20 08:58:28;;;;;;;6.05;5.75;;;;;;;7.22;42.10;102012.94;6083932;23;20093;-67
2022/03/20 09:00:57;;;;;;;4.10;3.90;;;;;;;7.97;41.96;102173.63;6086800;23;20092;-66
2022/03/20 09:03:24;;;;;;;5.35;5.07;;;;;;;8.28;42.31;102205.34;6076562;23;20443;-66
2022/03/20 09:05:51;;;;;;;4.15;3.95;;;;;;;8.38;42.71;102221.72;6088198;23;20022;-66
2022/03/20 09:08:18;;;;;;;4.50;4.25;;;;;;;8.69;41.82;102218.53;6109311;23;20014;-66
2022/03/20 09:10:49;;;;;;;4.65;4.45;;;;;;;8.73;41.71;102210.59;6061426;23;20275;-66
2022/03/20 09:13:18;;;;;;;6.03;5.63;;;;;;;8.75;40.80;102219.28;6087314;23;20014;-66
2022/03/20 09:15:44;;;;;;;4.80;4.50;;;;;;;8.76;42.62;102220.16;6083921;23;20088;-66
2022/03/20 09:20:56;;;;;;;4.45;4.25;;;;;;;9.01;41.94;102224.88;6101416;23;20029;-66
2022/03/20 09:23:22;;;;;;;5.00;4.75;;;;;;;8.94;41.92;102211.94;6086544;23;20022;-67
2022/03/20 09:25:50;;;;;;;4.60;4.30;;;;;;;9.06;41.91;102213.41;6060367;23;20455;-65
2022/03/20 09:28:16;;;;;;;3.60;3.50;;;;;;;9.19;42.35;102207.00;6085382;23;20408;-66
2022/03/20 09:30:43;;;;;;;4.40;4.20;;;;;;;9.45;41.61;102202.94;6081283;23;20030;-66
2022/03/20 09:33:10;;;;;;;4.38;4.18;;;;;;;9.67;42.08;102199.81;6080739;23;20537;-66
2022/03/20 09:35:37;;;;;;;6.03;5.63;;;;;;;9.62;39.59;102184.16;6105622;23;20017;-65
2022/03/20 09:38:07;;;;;;;4.40;4.20;;;;;;;8.70;40.39;102032.69;6087278;23;20134;-66
2022/03/20 09:40:36;;;;;;;6.50;6.07;;;;;;;9.35;40.67;102206.66;6023245;23;20030;-65
2022/03/20 09:43:04;;;;;;;4.50;4.30;;;;;;;9.39;40.69;102205.69;6056485;23;20236;-66
2022/03/20 09:45:31;;;;;;;5.82;5.53;;;;;;;9.58;40.79;102213.97;6035220;23;20178;-66
2022/03/20 09:47:58;;;;;;;8.13;6.07;;;;;;;8.52;40.68;102033.09;6074248;23;20085;-65
2022/03/20 09:50:25;;;;;;;5.88;5.53;;;;;;;9.46;40.92;102190.69;6053500;23;20105;-66
2022/03/20 09:52:52;;;;;;;4.55;4.35;;;;;;;8.81;41.38;102065.63;6067633;23;20354;-66
2022/03/20 09:55:19;;;;;;;5.03;4.75;;;;;;;8.90;41.48;102037.47;6055899;23;20506;-67
2022/03/20 09:57:46;;;;;;;5.38;4.88;;;;;;;10.19;40.69;102214.22;6072047;23;20022;-66
2022/03/20 10:00:15;;;;;;;4.65;4.35;;;;;;;9.18;40.11;102013.19;6060631;23;20063;-66
2022/03/20 10:02:41;;;;;;;6.35;5.05;;;;;;;10.25;39.46;102189.59;6061165;23;20307;-66
2022/03/20 10:05:10;;;;;;;5.30;4.78;;;;;;;10.37;40.36;102207.66;6068963;23;20017;-66
2022/03/20 10:07:43;;;;;;;6.00;5.43;;;;;;;10.10;40.31;102190.84;6054790;23;20029;-66
2022/03/20 10:10:09;;;;;;;5.03;4.60;;;;;;;10.18;40.83;102197.63;6077619;23;20018;-66
2022/03/20 10:12:38;;;;;;;5.95;5.65;;;;;;;10.31;40.35;102195.56;6045721;23;20099;-67
2022/03/20 10:15:05;;;;;;;4.47;4.25;;;;;;;8.82;39.90;101952.16;6063050;23;20042;-68
2022/03/20 10:17:39;;;;;;;5.13;4.93;;;;;;;10.60;40.04;102186.00;6067760;23;20328;-67
2022/03/20 10:20:18;;;;;;;4.60;4.40;;;;;;;10.77;39.85;102189.03;6026723;23;20053;-65
2022/03/20 10:22:45;;;;;;;4.90;4.70;;;;;;;11.05;39.36;102166.34;6055223;23;20263;-66
2022/03/20 10:25:16;;;;;;;5.38;4.95;;;;;;;10.98;39.56;102177.03;6058981;23;20089;-66
2022/03/20 10:27:57;;;;;;;4.38;4.18;;;;;;;9.75;39.28;102027.44;6053725;23;20047;-66
2022/03/20 10:30:24;;;;;;;5.97;5.60;;;;;;;10.63;38.81;102180.69;6055175;23;20291;-67
2022/03/20 10:32:51;;;;;;;4.70;4.50;;;;;;;9.88;39.67;102089.16;6060136;23;20010;-66
2022/03/20 10:35:17;;;;;;;5.15;4.75;;;;;;;10.66;40.31;102177.09;6055817;23;20055;-66
2022/03/20 10:37:55;;;;;;;5.63;5.13;;;;;;;8.86;40.42;101851.69;6070257;23;20333;-66
2022/03/20 10:40:27;;;;;;;4.95;4.55;;;;;;;10.89;39.33;102137.06;6077479;23;20045;-66
2022/03/20 10:43:12;;;;;;;4.95;4.72;;;;;;;11.21;39.17;102175.47;6083410;23;20014;-67
2022/03/20 10:46:02;;;;;;;6.07;5.68;;;;;;;11.36;38.71;102182.00;6056650;23;20664;-66
2022/03/20 10:48:44;;;;;;;6.80;6.50;;;;;;;11.34;39.21;102189.06;6077175;23;20026;-66
2022/03/20 10:51:11;;;;;;;6.47;4.30;;;;;;;11.65;39.02;102196.00;6053473;23;20234;-66
2022/03/20 10:53:56;;;;;;;6.63;6.22;;;;;;;11.47;38.79;102190.41;6083350;23;20408;-66
2022/03/20 10:56:22;;;;;;;4.80;4.57;;;;;;;11.22;39.00;102166.66;6082210;23;20076;-66
2022/03/20 10:58:49;;;;;;;4.88;4.57;;;;;;;10.74;39.67;102141.84;6089738;23;20081;-66
2022/03/20 11:01:34;;;;;;;5.28;4.97;;;;;;;11.22;40.63;102163.19;6058689;23;20053;-66
2022/03/20 11:04:03;;;;;;;6.43;5.82;;;;;;;11.34;39.29;102163.63;6083184;23;20024;-66
2022/03/20 11:06:30;;;;;;;7.30;6.80;;;;;;;11.44;39.28;102153.69;6080905;23;20086;-66
2022/03/20 11:08:56;;;;;;;5.70;5.40;;;;;;;11.20;39.56;102157.09;6084864;23;20116;-66
2022/03/20 11:11:24;;;;;;;5.25;4.97;;;;;;;10.60;39.66;102018.00;6045205;23;20018;-67
2022/03/20 11:13:52;;;;;;;5.95;5.57;;;;;;;11.51;39.97;102173.63;6086610;23;20073;-67
2022/03/20 11:16:23;;;;;;;4.88;4.68;;;;;;;11.40;39.74;102165.22;6056812;23;20558;-67
2022/03/20 11:18:52;;;;;;;6.70;5.82;;;;;;;11.46;39.79;102179.94;6079909;23;20024;-67
2022/03/20 11:21:24;;;;;;;4.78;4.57;;;;;;;11.39;40.44;102184.53;6089652;23;20523;-67
2022/03/20 11:23:53;;;;;;;4.70;4.50;;;;;;;11.48;40.06;102159.72;6081800;23;20143;-67
2022/03/20 11:26:21;;;;;;;4.75;4.55;;;;;;;11.66;40.29;102181.91;6106997;23;20025;-67
2022/03/20 11:28:53;;;;;;;5.53;5.18;;;;;;;11.72;40.40;102177.31;6084846;23;20380;-68
2022/03/20 11:31:21;;;;;;;;;;;;;;;11.72;39.90;102172.03;6101587;23;20026;-67
2022/03/20 11:33:49;;;;;;;5.03;4.80;;;;;;;11.63;40.68;102161.00;6086013;23;19951;-66
2022/03/20 11:36:16;;;;;;;5.63;5.13;;;;;;;11.84;40.90;102157.63;6082892;23;20194;-66
2022/03/20 11:38:42;;;;;;;5.20;4.90;;;;;;;11.67;39.73;102154.72;6088166;23;20022;-66
2022/03/20 11:41:17;;;;;;;5.00;4.75;;;;;;;11.44;40.63;102147.59;6045629;23;20466;-66
2022/03/20 11:43:47;;;;;;;5.47;5.18;;;;;;;10.89;41.95;102116.03;6045228;23;20018;-66
2022/03/20 11:46:30;;;;;;;8.55;5.30;;;;;;;10.93;42.31;102131.66;6055506;23;20084;-66
2022/03/20 11:49:17;;;;;;;10.40;4.80;;;;;;;10.89;42.83;102144.94;6021670;23;20124;-67
2022/03/20 11:51:54;;;;;;;5.05;4.85;;;;;;;10.86;43.05;102152.88;6046840;23;20022;-67
2022/03/20 11:54:21;;;;;;;7.22;6.82;;;;;;;10.72;43.49;102151.56;6053378;23;20392;-66
2022/03/20 11:56:48;;;;;;;5.72;5.32;;;;;;;10.57;44.51;102147.59;6048351;23;20097;-67
2022/03/20 11:59:44;;;;;;;5.03;4.72;;;;;;;10.49;44.91;102157.44;6048441;23;20018;-65
2022/03/20 12:02:16;;;;;;;5.00;4.63;;;;;;;9.34;45.03;101983.13;6052556;23;20046;-66
2022/03/20 12:04:56;;;;;;;5.18;4.78;;;;;;;10.44;45.48;102147.97;6074309;23;20131;-66